0.82C
облачно с прояснениями
облачно с прояснениями
Дата и времяТемператураДавление, мм рт.ст.Влажность, %Осадки
МинимумМаксимум
26.09.2022 11:001.33C1.33C76559облачно с прояснениями
26.09.2022 14:001.36C1.41C76560облачно с прояснениями
26.09.2022 17:000.57C0.82C76566пасмурно
26.09.2022 20:00-0.65C-0.65C76575пасмурно
26.09.2022 23:00-0.75C-0.75C76477пасмурно
27.09.2022 02:00-2.85C-2.85C76484облачно с прояснениями
27.09.2022 05:00-3.23C-3.23C76481переменная облачность
27.09.2022 08:00-1.64C-1.64C76371переменная облачность
27.09.2022 11:000.42C0.42C76361облачно с прояснениями
27.09.2022 14:001.38C1.38C76354пасмурно
27.09.2022 17:000.49C0.49C76467пасмурно
27.09.2022 20:00-1.1C-1.1C76589пасмурно
27.09.2022 23:00-1.59C-1.59C76572пасмурно
28.09.2022 02:00-2.67C-2.67C76570облачно с прояснениями
28.09.2022 05:00-3.19C-3.19C76568облачно с прояснениями
28.09.2022 08:00-1.43C-1.43C76561пасмурно
28.09.2022 11:001.06C1.06C76551пасмурно
28.09.2022 14:002.47C2.47C76547пасмурно
28.09.2022 17:001.09C1.09C76656пасмурно
28.09.2022 20:00-1.75C-1.75C76773пасмурно
28.09.2022 23:00-2.54C-2.54C76778облачно с прояснениями
29.09.2022 02:00-2.79C-2.79C76877небольшая облачность
29.09.2022 05:00-2.89C-2.89C76873небольшая облачность
29.09.2022 08:00-1.3C-1.3C76962ясно
29.09.2022 11:001.88C1.88C76949ясно
29.09.2022 14:003.19C3.19C77044ясно
29.09.2022 17:001.25C1.25C77152небольшая облачность
29.09.2022 20:00-1.65C-1.65C77265ясно
29.09.2022 23:00-2.21C-2.21C77372небольшая облачность
30.09.2022 02:00-2.64C-2.64C77479небольшая облачность
30.09.2022 05:00-2.53C-2.53C77492небольшая облачность
30.09.2022 08:000.34C0.34C77574пасмурно
30.09.2022 11:001.85C1.85C77555пасмурно
30.09.2022 14:003.16C3.16C77652пасмурно
30.09.2022 17:001.16C1.16C77662пасмурно
30.09.2022 20:00-0.99C-0.99C77770небольшая облачность
30.09.2022 23:00-2.13C-2.13C77777небольшая облачность
01.10.2022 02:00-1.56C-1.56C77773переменная облачность
01.10.2022 05:00-1.59C-1.59C77775переменная облачность
01.10.2022 08:000.39C0.39C77873переменная облачность
Дата и время наблюдения: 26.09.2022 10:09:27